Aviation Digital Data Service (ADDS)

Output produced by METARs form (0609 UTC 25 June 2018)
found at http://www.aviationweather.gov/adds/metars/
 
MHSC 250558Z AUTO 13006KT 9999 FEW230 25/21 A3002 RMK AO2 SLP119 T02460207 10290 20246 403130191 50015 $
TAF MHSC 242102Z 2421/2603 33009KT 9999 SCT150 QNH2987INS 
     BECMG 2500/2501 01006KT 9999 VCSH SCT070 BKN150 QNH2991INS 
     TEMPO 2501/2504 VCTS BKN050CB 
     BECMG 2509/2510 01006KT 9999 NSW SCT030 SCT150 QNH2998INS 
     BECMG 2516/2517 01006KT 9999 FEW030 SCT250 QNH2995INS 
     BECMG 2518/2519 31009KT 9999 VCSH FEW030 SCT250 QNH2987INS TX32/2521Z TN19/2512Z
       
MHLC 250600Z 00000KT 9999 FEW028 25/24 Q1013 A2992 NOSIG
TAF MHLC 242225Z 2500/2524 09005KT 8000 TSVCSH FEW024CB SCT080 TX32/2519Z TN23/2512Z 
     BECMG 2502/2504 9999 NSW SCT024 SCT080 
     BECMG 2516/2518 02010KT SCT026TCU 
     PROB30 2520/2524 6000 -TSRA SCT026CB
       
MHRO 250600Z 08020KT 9999 FEW025 28/25 Q1013 A2992 NOSIG
TAF MHRO 250425Z 2506/2606 08020KT 9999 SCT020 TX32/2519Z TN27/2512Z
       
MHLM 250400Z 34007KT 9999 FEW025 SCT080 2827 Q1013 A2992 NOSIG
TAF MHLM 250425Z 2506/2606 21004KT 9999 FEW026 SCT080 TX34/2521Z TN23/2512Z 
     BECMG 2514/2516 35006KT FEW030 
     BECMG 2519/2521 02012KT 
     BECMG 2602/2604 00000KT FEW025 SCT080
       
MHTG 250600Z 05004KT 9999 BKN030 20/17 Q1020 A3012 NOSIG
TAF MHTG 250425Z 2506/2606 00000KT 9999 FFEW010 SCT028 TX29/2520Z TN17/2512Z 
     BECMG 2515/2517 09008KT FEW028CB SCT032TCU 
     BECMG 2603/2605 00000KT FEW010 SCT028